createdAt,value
2022-12-16T00:01:15.576Z,91.52
2022-12-16T00:03:47.830Z,91.52
2022-12-16T00:06:14.383Z,91.52
2022-12-16T00:08:41.021Z,91.51
2022-12-16T00:11:08.711Z,91.51
2022-12-16T00:13:37.235Z,91.48
2022-12-16T00:16:06.576Z,91.45
2022-12-16T00:18:33.754Z,91.44
2022-12-16T00:21:00.506Z,91.44
2022-12-16T00:23:28.355Z,91.41
2022-12-16T00:25:55.369Z,91.39
2022-12-16T00:28:24.817Z,91.39
2022-12-16T00:30:53.357Z,91.38
2022-12-16T00:33:24.419Z,91.38
2022-12-16T00:35:51.910Z,91.38
2022-12-16T00:38:19.368Z,91.40
2022-12-16T00:40:46.420Z,91.42
2022-12-16T00:43:13.380Z,91.42
2022-12-16T00:45:40.527Z,91.41
2022-12-16T00:48:07.803Z,91.41
2022-12-16T00:50:35.487Z,91.42
2022-12-16T00:53:02.812Z,91.41
2022-12-16T00:55:29.826Z,91.39
2022-12-16T00:57:56.508Z,91.33
2022-12-16T01:00:23.733Z,91.24
2022-12-16T01:02:51.627Z,91.17
2022-12-16T01:05:22.278Z,91.11
2022-12-16T01:07:49.067Z,91.04
2022-12-16T02:35:35.655Z,90.17
2022-12-16T02:38:24.726Z,90.17
2022-12-16T02:41:00.345Z,90.66
2022-12-16T02:43:43.085Z,90.51
2022-12-16T02:46:09.979Z,90.35
2022-12-16T02:48:36.907Z,90.19
2022-12-16T02:51:03.651Z,90.07
2022-12-16T02:53:36.115Z,89.92
2022-12-16T02:56:22.821Z,89.83
2022-12-16T02:59:01.639Z,89.73
2022-12-16T03:01:28.662Z,89.61
2022-12-16T03:04:11.894Z,89.50
2022-12-16T03:06:42.343Z,89.40
2022-12-16T03:09:12.407Z,89.30
2022-12-16T03:11:43.166Z,89.21
2022-12-16T03:14:14.557Z,89.14
2022-12-16T03:16:42.760Z,89.07
2022-12-16T03:19:11.807Z,89.02
2022-12-16T03:21:46.491Z,88.93
2022-12-16T03:24:14.433Z,88.87
2022-12-16T03:26:51.659Z,88.81
2022-12-16T03:29:28.088Z,88.75
2022-12-16T03:32:01.019Z,88.70
2022-12-16T03:34:53.144Z,88.64
2022-12-16T03:37:25.022Z,88.56
2022-12-16T03:39:57.250Z,88.51
2022-12-16T03:42:24.115Z,88.44
2022-12-16T03:44:51.297Z,88.36
2022-12-16T03:47:23.319Z,88.26
2022-12-16T03:49:51.127Z,88.17
2022-12-16T03:52:18.124Z,88.11
2022-12-16T03:54:44.728Z,88.03
2022-12-16T03:57:15.446Z,87.95
2022-12-16T03:59:43.007Z,87.89
2022-12-16T04:02:09.772Z,87.84
2022-12-16T04:04:36.800Z,87.76
2022-12-16T04:07:21.788Z,87.70
2022-12-16T04:09:49.996Z,87.62
2022-12-16T04:12:35.544Z,87.59
2022-12-16T04:15:20.918Z,87.52
2022-12-16T04:18:06.430Z,87.43
2022-12-16T04:20:55.947Z,87.38
2022-12-16T04:23:44.817Z,87.31
2022-12-16T04:26:12.191Z,87.26
2022-12-16T04:28:38.823Z,87.20
2022-12-16T04:31:05.814Z,87.15
2022-12-16T04:33:51.558Z,87.11
2022-12-16T04:36:36.889Z,87.06
2022-12-16T04:39:23.035Z,87.03
2022-12-16T04:42:12.329Z,87.02
2022-12-16T04:44:58.677Z,86.96
2022-12-16T04:47:44.317Z,86.93
2022-12-16T04:50:29.725Z,86.92
2022-12-16T04:53:15.243Z,86.92
2022-12-16T04:56:04.156Z,86.90
2022-12-16T04:58:50.480Z,86.91
2022-12-16T05:01:36.067Z,86.90
2022-12-16T05:04:21.313Z,86.93
2022-12-16T05:07:06.534Z,86.94
2022-12-16T05:09:52.066Z,86.93
2022-12-16T05:12:37.764Z,86.91
2022-12-16T05:15:23.696Z,86.91
2022-12-16T05:18:08.932Z,86.96
2022-12-16T05:20:54.349Z,87.02
2022-12-16T05:23:42.588Z,87.06
2022-12-16T05:26:27.709Z,87.12
2022-12-16T05:29:13.176Z,87.16
2022-12-16T05:31:58.689Z,87.20
2022-12-16T05:34:43.934Z,87.27
2022-12-16T05:37:29.308Z,87.34
2022-12-16T05:40:14.658Z,87.39
2022-12-16T05:43:04.004Z,87.48
2022-12-16T05:45:49.409Z,87.56
2022-12-16T05:48:34.741Z,87.65
2022-12-16T05:51:20.164Z,87.73
2022-12-16T05:54:05.600Z,87.79
2022-12-16T05:56:50.962Z,87.87
2022-12-16T05:59:36.308Z,87.91
2022-12-16T06:02:21.576Z,87.96
2022-12-16T06:05:07.290Z,88.02
2022-12-16T06:07:52.494Z,88.08
2022-12-16T06:10:38.391Z,88.14
2022-12-16T06:13:23.825Z,88.20
2022-12-16T06:16:09.483Z,88.24
2022-12-16T06:18:55.156Z,88.28
2022-12-16T06:21:41.198Z,88.31
2022-12-16T06:24:26.478Z,88.36
2022-12-16T06:27:12.098Z,88.40
2022-12-16T06:29:57.338Z,88.47
2022-12-16T06:32:42.869Z,88.56
2022-12-16T06:35:28.295Z,88.66
2022-12-16T06:38:13.889Z,88.77
2022-12-16T06:40:59.353Z,88.86
2022-12-16T06:43:44.689Z,88.96
2022-12-16T06:46:30.260Z,89.04
2022-12-16T06:49:16.031Z,89.10
2022-12-16T06:52:01.262Z,89.13
2022-12-16T06:54:46.771Z,89.19
2022-12-16T06:57:32.142Z,89.23
2022-12-16T07:00:17.946Z,89.28
2022-12-16T07:03:03.203Z,89.33
2022-12-16T07:05:49.015Z,89.37
2022-12-16T07:08:34.466Z,89.44
2022-12-16T07:11:19.738Z,89.47
2022-12-16T07:14:12.692Z,89.53
2022-12-16T07:16:58.427Z,89.58
2022-12-16T07:19:43.789Z,89.61
2022-12-16T07:22:29.190Z,89.67
2022-12-16T07:25:14.627Z,89.72
2022-12-16T07:28:04.615Z,89.76
2022-12-16T07:30:50.017Z,89.75
2022-12-16T07:33:36.159Z,89.77
2022-12-16T07:36:21.572Z,89.77
2022-12-16T07:39:07.010Z,89.76
2022-12-16T07:41:52.196Z,89.79
2022-12-16T07:44:38.312Z,89.86
2022-12-16T07:47:23.603Z,89.93
2022-12-16T07:50:08.832Z,90.02
2022-12-16T07:52:54.342Z,90.10
2022-12-16T07:55:40.859Z,90.17
2022-12-16T07:58:28.168Z,90.21
2022-12-16T08:01:13.699Z,90.25
2022-12-16T08:03:59.621Z,90.30
2022-12-16T08:06:44.958Z,90.35
2022-12-16T08:09:30.473Z,90.32
2022-12-16T08:12:15.875Z,90.31
2022-12-16T08:15:01.255Z,90.30
2022-12-16T08:17:46.533Z,90.33
2022-12-16T08:20:32.241Z,90.35
2022-12-16T08:23:17.669Z,90.34
2022-12-16T08:26:16.605Z,90.39
2022-12-16T08:29:27.304Z,90.50
2022-12-16T08:32:08.012Z,90.57
2022-12-16T08:34:53.497Z,90.63
2022-12-16T08:37:38.851Z,90.66
2022-12-16T08:40:39.927Z,90.67
2022-12-16T08:43:25.354Z,90.70
2022-12-16T08:46:13.219Z,90.75
2022-12-16T08:48:59.022Z,90.80
2022-12-16T08:51:44.656Z,90.83
2022-12-16T08:54:30.971Z,90.84
2022-12-16T08:57:16.682Z,90.84
2022-12-16T09:00:02.467Z,90.84
2022-12-16T09:02:48.187Z,90.83
2022-12-16T09:05:34.022Z,90.84
2022-12-16T09:08:21.199Z,90.85
2022-12-16T09:11:06.897Z,90.86
2022-12-16T09:13:52.262Z,90.85
2022-12-16T09:16:37.573Z,90.88
2022-12-16T09:19:23.167Z,90.88
2022-12-16T09:22:08.585Z,90.87
2022-12-16T09:24:53.999Z,90.87
2022-12-16T09:27:41.640Z,90.89
2022-12-16T09:30:27.987Z,90.91
2022-12-16T09:33:13.369Z,90.89
2022-12-16T09:35:58.947Z,90.84
2022-12-16T09:38:44.196Z,90.85
2022-12-16T09:41:45.222Z,90.81
2022-12-16T09:44:49.271Z,90.77
2022-12-16T09:47:57.322Z,90.73
2022-12-16T09:50:46.561Z,90.69
2022-12-16T09:53:34.512Z,90.66
2022-12-16T09:56:23.554Z,90.69
2022-12-16T09:59:21.399Z,90.66
2022-12-16T10:02:09.350Z,90.66
2022-12-16T10:04:55.098Z,90.67
2022-12-16T10:07:42.095Z,90.70
2022-12-16T10:10:46.923Z,90.71
2022-12-16T10:13:37.728Z,90.75
2022-12-16T10:16:39.826Z,90.81
2022-12-16T10:19:39.687Z,90.82
2022-12-16T10:22:39.886Z,90.85
2022-12-16T10:25:37.722Z,90.87
2022-12-16T10:28:40.590Z,90.92
2022-12-16T10:31:32.182Z,90.97
2022-12-16T10:34:18.115Z,90.93
2022-12-16T10:37:10.993Z,90.98
2022-12-16T10:40:02.446Z,91.03
2022-12-16T10:42:52.403Z,91.10
2022-12-16T10:46:03.903Z,91.16
2022-12-16T10:48:56.910Z,91.21
2022-12-16T10:51:45.989Z,91.27
2022-12-16T10:54:47.297Z,91.32
2022-12-16T10:57:58.385Z,91.35
2022-12-16T11:01:04.830Z,91.41
2022-12-16T11:03:54.406Z,91.47
2022-12-16T11:06:44.073Z,91.51
2022-12-16T11:09:49.584Z,91.56
2022-12-16T11:12:49.344Z,91.63
2022-12-16T11:15:49.588Z,91.68
2022-12-16T11:18:37.403Z,91.71
2022-12-16T11:21:43.035Z,91.74
2022-12-16T11:24:31.326Z,91.77
2022-12-16T11:27:22.830Z,91.80
2022-12-16T11:30:20.531Z,91.81
2022-12-16T11:33:13.105Z,91.87
2022-12-16T11:36:03.565Z,91.90
2022-12-16T11:39:09.855Z,91.93
2022-12-16T11:41:59.708Z,91.96
2022-12-16T11:44:54.664Z,91.98
2022-12-16T11:47:53.493Z,92.02
2022-12-16T11:50:40.853Z,92.05
2022-12-16T11:53:43.909Z,92.07
2022-12-16T11:56:39.103Z,92.13
2022-12-16T11:59:39.564Z,92.17
2022-12-16T12:02:54.815Z,92.19
2022-12-16T12:06:05.529Z,92.21
2022-12-16T12:09:06.706Z,92.23
2022-12-16T12:11:54.027Z,92.28
2022-12-16T12:15:06.108Z,92.32
2022-12-16T12:18:03.069Z,92.37
2022-12-16T12:20:57.874Z,92.40
2022-12-16T12:23:58.490Z,92.44
2022-12-16T12:26:51.123Z,92.51
2022-12-16T12:29:57.885Z,92.55
2022-12-16T12:32:55.507Z,92.59
2022-12-16T12:36:03.714Z,92.63
2022-12-16T12:38:57.983Z,92.66
2022-12-16T14:23:57.773Z,94.85
2022-12-16T14:26:44.545Z,94.68
2022-12-16T14:29:44.386Z,94.62
2022-12-16T14:32:59.350Z,94.55
2022-12-16T14:35:46.483Z,94.49
2022-12-16T14:38:49.241Z,94.46
2022-12-16T14:41:39.316Z,94.43
2022-12-16T14:44:36.167Z,94.40
2022-12-16T14:47:21.838Z,94.39
2022-12-16T14:50:10.881Z,94.39
2022-12-16T14:52:57.176Z,94.38
2022-12-16T14:55:48.779Z,94.37
2022-12-16T14:58:36.563Z,94.37
2022-12-16T15:01:31.441Z,94.37
2022-12-16T15:04:18.810Z,94.38
2022-12-16T15:07:08.167Z,94.37
2022-12-16T15:10:05.324Z,94.41
2022-12-16T15:12:58.646Z,94.43
2022-12-16T15:15:57.244Z,94.44
2022-12-16T15:19:04.953Z,94.46
2022-12-16T15:21:54.021Z,94.47
2022-12-16T15:24:44.417Z,94.47
2022-12-16T15:27:53.465Z,94.47
2022-12-16T15:31:04.663Z,94.48
2022-12-16T15:33:53.209Z,94.48
2022-12-16T15:36:41.565Z,94.48
2022-12-16T15:39:40.835Z,94.45
2022-12-16T15:42:47.364Z,94.45
2022-12-16T15:45:44.326Z,94.43
2022-12-16T15:48:42.015Z,94.40
2022-12-16T15:51:50.291Z,94.37
2022-12-16T15:54:45.460Z,94.34
2022-12-16T15:57:53.775Z,94.33
2022-12-16T16:00:49.968Z,94.29
2022-12-16T16:03:47.686Z,94.29
2022-12-16T16:06:40.256Z,94.27
2022-12-16T16:09:45.935Z,94.27
2022-12-16T16:12:34.689Z,94.30
2022-12-16T16:15:20.926Z,94.31
2022-12-16T16:18:12.382Z,94.32
2022-12-16T16:20:58.350Z,94.35
2022-12-16T16:23:43.761Z,94.37
2022-12-16T16:26:31.987Z,94.37
2022-12-16T16:29:17.709Z,94.41
2022-12-16T16:32:04.837Z,94.41
2022-12-16T16:34:50.102Z,94.40
2022-12-16T16:37:38.623Z,94.41
2022-12-16T16:40:37.137Z,94.44
2022-12-16T16:43:23.271Z,94.45
2022-12-16T16:46:13.218Z,94.48
2022-12-16T16:48:59.604Z,94.48
2022-12-16T16:51:45.536Z,94.48
2022-12-16T16:54:31.076Z,94.48
2022-12-16T16:57:19.523Z,94.49
2022-12-16T17:00:05.544Z,94.50
2022-12-16T17:03:10.979Z,94.53
2022-12-16T17:05:56.742Z,94.52
2022-12-16T17:08:41.929Z,94.57
2022-12-16T17:11:41.314Z,94.59
2022-12-16T17:14:35.314Z,94.61
2022-12-16T17:17:21.223Z,94.62
2022-12-16T17:20:07.156Z,94.62
2022-12-16T17:22:53.011Z,94.62
2022-12-16T17:25:39.225Z,94.62
2022-12-16T17:28:24.923Z,94.60
2022-12-16T17:31:10.180Z,94.62
2022-12-16T17:33:55.798Z,94.62
2022-12-16T17:36:40.959Z,94.62
2022-12-16T17:39:29.424Z,94.62
2022-12-16T17:42:15.340Z,94.62
2022-12-16T17:45:01.261Z,94.64
2022-12-16T17:47:46.831Z,94.63
2022-12-16T17:50:33.182Z,94.65
2022-12-16T17:53:18.406Z,94.65
2022-12-16T17:56:03.848Z,94.65
2022-12-16T17:58:54.063Z,94.65
2022-12-16T18:01:40.701Z,94.65
2022-12-16T18:04:27.064Z,94.64
2022-12-16T18:07:26.559Z,94.64
2022-12-16T18:10:11.975Z,94.63
2022-12-16T18:12:57.425Z,94.61
2022-12-16T18:15:42.844Z,94.61
2022-12-16T18:18:28.300Z,94.63
2022-12-16T18:21:13.863Z,94.64
2022-12-16T18:23:59.462Z,94.64
2022-12-16T18:26:44.803Z,94.67
2022-12-16T18:29:29.970Z,94.68
2022-12-16T18:32:15.411Z,94.67
2022-12-16T18:35:00.924Z,94.67
2022-12-16T18:37:46.383Z,94.69
2022-12-16T18:40:31.813Z,94.69
2022-12-16T18:43:17.613Z,94.69
2022-12-16T18:46:02.974Z,94.71
2022-12-16T18:48:48.415Z,94.70
2022-12-16T18:51:33.905Z,94.74
2022-12-16T18:54:19.684Z,94.74
2022-12-16T18:57:05.124Z,94.74
2022-12-16T18:59:56.398Z,94.75
2022-12-16T19:02:42.088Z,94.75
2022-12-16T19:05:27.826Z,94.76
2022-12-16T19:08:14.609Z,94.78
2022-12-16T19:11:00.241Z,94.79
2022-12-16T19:13:45.682Z,94.77
2022-12-16T19:16:33.977Z,94.79
2022-12-16T19:19:20.444Z,94.81
2022-12-16T19:22:06.238Z,94.78
2022-12-16T19:24:51.892Z,94.81
2022-12-16T19:27:37.631Z,94.82
2022-12-16T19:30:23.581Z,94.81
2022-12-16T19:33:09.293Z,94.82
2022-12-16T19:35:54.614Z,94.81
2022-12-16T19:38:42.741Z,94.84
2022-12-16T19:41:36.370Z,94.84
2022-12-16T19:44:23.155Z,94.85
2022-12-16T19:47:09.402Z,94.85
2022-12-16T19:49:56.175Z,94.86
2022-12-16T19:52:42.375Z,94.87
2022-12-16T19:55:28.347Z,94.87
2022-12-16T19:58:14.376Z,94.87
2022-12-16T20:01:00.020Z,94.89
2022-12-16T20:03:46.245Z,94.90
2022-12-16T20:06:34.333Z,94.90
2022-12-16T20:09:19.820Z,94.93
2022-12-16T20:12:05.123Z,94.94
2022-12-16T20:14:50.556Z,94.94
2022-12-16T20:17:38.015Z,94.94
2022-12-16T20:20:24.169Z,94.95
2022-12-16T20:23:09.446Z,94.95
2022-12-16T20:29:00.577Z,94.98
2022-12-16T20:31:47.282Z,94.99
2022-12-16T20:34:32.665Z,95.02
2022-12-16T20:37:18.204Z,95.03
2022-12-16T20:40:03.530Z,95.05
2022-12-16T20:42:49.449Z,95.06
2022-12-16T20:45:35.979Z,95.09
2022-12-16T20:48:22.352Z,95.12
2022-12-16T20:51:18.557Z,95.13
2022-12-16T20:54:10.193Z,95.13
2022-12-16T20:56:55.498Z,95.13
2022-12-16T20:59:42.183Z,95.14
2022-12-16T21:02:34.364Z,95.17
2022-12-16T21:05:21.643Z,95.20
2022-12-16T21:08:06.947Z,95.22
2022-12-16T21:10:52.588Z,95.24
2022-12-16T21:13:41.692Z,95.27
2022-12-16T21:16:27.427Z,95.27
2022-12-16T21:19:12.860Z,95.27
2022-12-16T21:21:58.160Z,95.29
2022-12-16T21:24:43.739Z,95.30
2022-12-16T21:27:29.684Z,95.31
2022-12-16T21:30:24.629Z,95.31
2022-12-16T21:33:09.989Z,95.33
2022-12-16T21:39:00.984Z,95.34
2022-12-16T21:41:46.362Z,95.36
2022-12-16T21:44:31.714Z,95.37
2022-12-16T21:47:17.331Z,95.39
2022-12-16T21:50:02.957Z,95.38
2022-12-16T21:52:48.484Z,95.39
2022-12-16T21:55:34.483Z,95.39
2022-12-16T21:58:19.776Z,95.42
2022-12-16T22:01:13.664Z,95.42
2022-12-16T22:03:59.108Z,95.43
2022-12-16T22:06:48.563Z,95.46
2022-12-16T22:09:35.631Z,95.48
2022-12-16T22:12:21.025Z,95.52
2022-12-16T22:15:06.456Z,95.51
2022-12-16T22:20:57.526Z,95.54
2022-12-16T22:23:47.574Z,95.54
2022-12-16T22:26:33.436Z,95.54
2022-12-16T22:29:18.856Z,95.54
2022-12-16T22:32:04.244Z,95.55
2022-12-16T22:34:49.581Z,95.56
2022-12-16T22:37:34.918Z,95.59
2022-12-16T22:40:20.286Z,95.60
2022-12-16T22:43:07.193Z,95.59
2022-12-16T22:45:52.901Z,95.61
2022-12-16T22:48:41.821Z,95.64
2022-12-16T22:51:32.282Z,95.67
2022-12-16T22:54:18.604Z,95.68
2022-12-16T22:57:03.959Z,95.67
2022-12-16T22:59:49.182Z,95.68
2022-12-16T23:02:34.622Z,95.71
2022-12-16T23:05:25.347Z,95.71
2022-12-16T23:08:12.916Z,95.69
2022-12-16T23:10:58.223Z,95.72
2022-12-16T23:13:45.298Z,95.74
2022-12-16T23:16:31.089Z,95.76
2022-12-16T23:19:16.649Z,95.80
2022-12-16T23:22:01.919Z,95.81
2022-12-16T23:24:47.266Z,95.83
2022-12-16T23:30:19.595Z,95.86
2022-12-16T23:33:05.050Z,95.87
2022-12-16T23:35:50.528Z,95.88
2022-12-16T23:38:36.003Z,95.90
2022-12-16T23:41:21.334Z,95.89
2022-12-16T23:44:06.960Z,95.90
2022-12-16T23:46:53.426Z,95.95
2022-12-16T23:49:39.256Z,95.94
2022-12-16T23:52:24.485Z,95.96
2022-12-16T23:55:09.963Z,95.96
2022-12-16T23:57:56.183Z,95.98
